sensor_id;sensor_type;location;lat;lon;timestamp;pressure;altitude;pressure_sealevel;temperature
64960;BMP180;51487;52.266;10.542;2023-01-09T00:01:18;98753.00;;;5.90
64960;BMP180;51487;52.266;10.542;2023-01-09T00:04:04;98747.00;;;5.80
64960;BMP180;51487;52.266;10.542;2023-01-09T00:06:30;98751.00;;;5.80
64960;BMP180;51487;52.266;10.542;2023-01-09T00:08:56;98746.00;;;5.80
64960;BMP180;51487;52.266;10.542;2023-01-09T00:11:21;98738.00;;;5.80
64960;BMP180;51487;52.266;10.542;2023-01-09T00:13:47;98737.00;;;5.80
64960;BMP180;51487;52.266;10.542;2023-01-09T00:16:14;98726.00;;;5.70
64960;BMP180;51487;52.266;10.542;2023-01-09T00:18:40;98723.00;;;5.70
64960;BMP180;51487;52.266;10.542;2023-01-09T00:21:07;98718.00;;;5.70
64960;BMP180;51487;52.266;10.542;2023-01-09T00:23:34;98727.00;;;5.70
64960;BMP180;51487;52.266;10.542;2023-01-09T00:26:04;98727.00;;;5.70
64960;BMP180;51487;52.266;10.542;2023-01-09T00:28:42;98727.00;;;5.70
64960;BMP180;51487;52.266;10.542;2023-01-09T00:31:09;98722.00;;;5.70
64960;BMP180;51487;52.266;10.542;2023-01-09T00:33:38;98714.00;;;5.70
64960;BMP180;51487;52.266;10.542;2023-01-09T00:36:07;98717.00;;;5.70
64960;BMP180;51487;52.266;10.542;2023-01-09T00:38:33;98704.00;;;5.70
64960;BMP180;51487;52.266;10.542;2023-01-09T00:41:00;98700.00;;;5.70
64960;BMP180;51487;52.266;10.542;2023-01-09T00:43:31;98698.00;;;5.70
64960;BMP180;51487;52.266;10.542;2023-01-09T00:46:02;98692.00;;;5.70
64960;BMP180;51487;52.266;10.542;2023-01-09T00:48:31;98699.00;;;5.80
64960;BMP180;51487;52.266;10.542;2023-01-09T00:50:59;98696.00;;;5.80
64960;BMP180;51487;52.266;10.542;2023-01-09T00:53:27;98692.00;;;5.80
64960;BMP180;51487;52.266;10.542;2023-01-09T00:55:58;98688.00;;;5.90
64960;BMP180;51487;52.266;10.542;2023-01-09T00:58:28;98693.00;;;5.90
64960;BMP180;51487;52.266;10.542;2023-01-09T01:00:53;98678.00;;;6.00
64960;BMP180;51487;52.266;10.542;2023-01-09T01:03:19;98673.00;;;6.00
64960;BMP180;51487;52.266;10.542;2023-01-09T01:05:44;98678.00;;;6.00
64960;BMP180;51487;52.266;10.542;2023-01-09T01:08:29;98680.00;;;6.10
64960;BMP180;51487;52.266;10.542;2023-01-09T01:10:54;98681.00;;;6.20
64960;BMP180;51487;52.266;10.542;2023-01-09T01:13:20;98673.00;;;6.20
64960;BMP180;51487;52.266;10.542;2023-01-09T01:15:45;98675.00;;;6.30
64960;BMP180;51487;52.266;10.542;2023-01-09T01:18:12;98685.00;;;6.40
64960;BMP180;51487;52.266;10.542;2023-01-09T01:20:40;98678.00;;;6.40
64960;BMP180;51487;52.266;10.542;2023-01-09T01:23:06;98668.00;;;6.40
64960;BMP180;51487;52.266;10.542;2023-01-09T01:25:35;98669.00;;;6.50
64960;BMP180;51487;52.266;10.542;2023-01-09T01:28:02;98673.00;;;6.60
64960;BMP180;51487;52.266;10.542;2023-01-09T01:30:27;98672.00;;;6.50
64960;BMP180;51487;52.266;10.542;2023-01-09T01:32:55;98675.00;;;6.50
64960;BMP180;51487;52.266;10.542;2023-01-09T01:35:21;98678.00;;;6.60
64960;BMP180;51487;52.266;10.542;2023-01-09T01:37:47;98674.00;;;6.70
64960;BMP180;51487;52.266;10.542;2023-01-09T01:40:14;98671.00;;;6.80
64960;BMP180;51487;52.266;10.542;2023-01-09T01:42:51;98678.00;;;6.80
64960;BMP180;51487;52.266;10.542;2023-01-09T01:45:27;98674.00;;;6.80
64960;BMP180;51487;52.266;10.542;2023-01-09T01:48:05;98681.00;;;6.80
64960;BMP180;51487;52.266;10.542;2023-01-09T01:50:54;98672.00;;;7.00
64960;BMP180;51487;52.266;10.542;2023-01-09T01:53:27;98670.00;;;6.90
64960;BMP180;51487;52.266;10.542;2023-01-09T01:56:17;98667.00;;;6.90
64960;BMP180;51487;52.266;10.542;2023-01-09T01:58:50;98679.00;;;6.90
64960;BMP180;51487;52.266;10.542;2023-01-09T02:01:22;98672.00;;;6.80
64960;BMP180;51487;52.266;10.542;2023-01-09T02:03:51;98676.00;;;6.90
64960;BMP180;51487;52.266;10.542;2023-01-09T02:06:19;98668.00;;;6.90
64960;BMP180;51487;52.266;10.542;2023-01-09T02:08:45;98667.00;;;6.90
64960;BMP180;51487;52.266;10.542;2023-01-09T02:11:12;98663.00;;;6.90
64960;BMP180;51487;52.266;10.542;2023-01-09T02:13:40;98658.00;;;7.00
64960;BMP180;51487;52.266;10.542;2023-01-09T02:19:39;98648.00;;;6.80
64960;BMP180;51487;52.266;10.542;2023-01-09T02:22:35;98641.00;;;6.90
64960;BMP180;51487;52.266;10.542;2023-01-09T02:31:09;98649.00;;;6.90
64960;BMP180;51487;52.266;10.542;2023-01-09T02:36:35;98652.00;;;6.90
64960;BMP180;51487;52.266;10.542;2023-01-09T02:42:09;98648.00;;;6.80
64960;BMP180;51487;52.266;10.542;2023-01-09T02:44:40;98642.00;;;6.80
64960;BMP180;51487;52.266;10.542;2023-01-09T02:49:49;98628.00;;;6.60
64960;BMP180;51487;52.266;10.542;2023-01-09T03:04:11;98611.00;;;6.80
64960;BMP180;51487;52.266;10.542;2023-01-09T03:06:46;98604.00;;;6.70
64960;BMP180;51487;52.266;10.542;2023-01-09T03:09:21;98615.00;;;6.70
64960;BMP180;51487;52.266;10.542;2023-01-09T03:11:57;98608.00;;;6.70
64960;BMP180;51487;52.266;10.542;2023-01-09T03:14:30;98604.00;;;6.80
64960;BMP180;51487;52.266;10.542;2023-01-09T03:17:02;98605.00;;;6.80
64960;BMP180;51487;52.266;10.542;2023-01-09T03:19:32;98601.00;;;6.80
64960;BMP180;51487;52.266;10.542;2023-01-09T03:21:59;98597.00;;;6.60
64960;BMP180;51487;52.266;10.542;2023-01-09T03:24:26;98602.00;;;6.60
64960;BMP180;51487;52.266;10.542;2023-01-09T03:26:51;98590.00;;;6.70
64960;BMP180;51487;52.266;10.542;2023-01-09T03:29:19;98584.00;;;6.70
64960;BMP180;51487;52.266;10.542;2023-01-09T03:31:45;98581.00;;;6.60
64960;BMP180;51487;52.266;10.542;2023-01-09T03:34:11;98571.00;;;6.70
64960;BMP180;51487;52.266;10.542;2023-01-09T03:36:36;98578.00;;;6.70
64960;BMP180;51487;52.266;10.542;2023-01-09T03:39:01;98574.00;;;6.60
64960;BMP180;51487;52.266;10.542;2023-01-09T03:41:27;98564.00;;;6.70
64960;BMP180;51487;52.266;10.542;2023-01-09T03:43:52;98557.00;;;6.70
64960;BMP180;51487;52.266;10.542;2023-01-09T03:46:18;98559.00;;;6.70
64960;BMP180;51487;52.266;10.542;2023-01-09T03:48:43;98559.00;;;6.80
64960;BMP180;51487;52.266;10.542;2023-01-09T03:51:09;98564.00;;;6.70
64960;BMP180;51487;52.266;10.542;2023-01-09T03:53:35;98558.00;;;6.70
64960;BMP180;51487;52.266;10.542;2023-01-09T03:56:00;98557.00;;;6.70
64960;BMP180;51487;52.266;10.542;2023-01-09T03:58:26;98563.00;;;6.70
64960;BMP180;51487;52.266;10.542;2023-01-09T04:00:57;98555.00;;;6.70
64960;BMP180;51487;52.266;10.542;2023-01-09T04:03:24;98552.00;;;6.60
64960;BMP180;51487;52.266;10.542;2023-01-09T04:05:50;98546.00;;;6.70
64960;BMP180;51487;52.266;10.542;2023-01-09T04:08:16;98545.00;;;6.60
64960;BMP180;51487;52.266;10.542;2023-01-09T04:10:45;98544.00;;;6.80
64960;BMP180;51487;52.266;10.542;2023-01-09T04:13:12;98556.00;;;6.80
64960;BMP180;51487;52.266;10.542;2023-01-09T04:15:38;98557.00;;;6.80
64960;BMP180;51487;52.266;10.542;2023-01-09T04:18:03;98551.00;;;6.70
64960;BMP180;51487;52.266;10.542;2023-01-09T04:20:29;98550.00;;;6.70
64960;BMP180;51487;52.266;10.542;2023-01-09T04:22:55;98548.00;;;6.60
64960;BMP180;51487;52.266;10.542;2023-01-09T04:25:20;98552.00;;;6.60
64960;BMP180;51487;52.266;10.542;2023-01-09T04:27:49;98544.00;;;6.50
64960;BMP180;51487;52.266;10.542;2023-01-09T04:30:14;98542.00;;;6.50
64960;BMP180;51487;52.266;10.542;2023-01-09T04:32:40;98527.00;;;6.50
64960;BMP180;51487;52.266;10.542;2023-01-09T04:35:06;98525.00;;;6.50
64960;BMP180;51487;52.266;10.542;2023-01-09T04:37:32;98519.00;;;6.60
64960;BMP180;51487;52.266;10.542;2023-01-09T04:40:00;98528.00;;;6.50
64960;BMP180;51487;52.266;10.542;2023-01-09T04:42:26;98522.00;;;6.50
64960;BMP180;51487;52.266;10.542;2023-01-09T04:44:52;98531.00;;;6.50
64960;BMP180;51487;52.266;10.542;2023-01-09T04:47:19;98528.00;;;6.70
64960;BMP180;51487;52.266;10.542;2023-01-09T04:49:45;98525.00;;;6.60
64960;BMP180;51487;52.266;10.542;2023-01-09T04:52:11;98518.00;;;6.60
64960;BMP180;51487;52.266;10.542;2023-01-09T04:54:36;98523.00;;;6.50
64960;BMP180;51487;52.266;10.542;2023-01-09T04:57:03;98516.00;;;6.60
64960;BMP180;51487;52.266;10.542;2023-01-09T04:59:29;98518.00;;;6.60
64960;BMP180;51487;52.266;10.542;2023-01-09T05:01:55;98514.00;;;6.60
64960;BMP180;51487;52.266;10.542;2023-01-09T05:04:23;98513.00;;;6.70
64960;BMP180;51487;52.266;10.542;2023-01-09T05:06:48;98515.00;;;6.70
64960;BMP180;51487;52.266;10.542;2023-01-09T05:09:14;98519.00;;;6.80
64960;BMP180;51487;52.266;10.542;2023-01-09T05:11:39;98520.00;;;6.80
64960;BMP180;51487;52.266;10.542;2023-01-09T05:14:05;98517.00;;;6.70
64960;BMP180;51487;52.266;10.542;2023-01-09T05:16:30;98531.00;;;6.70
64960;BMP180;51487;52.266;10.542;2023-01-09T05:18:56;98534.00;;;6.80
64960;BMP180;51487;52.266;10.542;2023-01-09T05:21:25;98540.00;;;6.80
64960;BMP180;51487;52.266;10.542;2023-01-09T05:23:51;98539.00;;;6.70
64960;BMP180;51487;52.266;10.542;2023-01-09T05:26:19;98544.00;;;6.80
64960;BMP180;51487;52.266;10.542;2023-01-09T05:28:49;98540.00;;;6.80
64960;BMP180;51487;52.266;10.542;2023-01-09T05:31:16;98543.00;;;6.80
64960;BMP180;51487;52.266;10.542;2023-01-09T05:33:42;98540.00;;;6.90
64960;BMP180;51487;52.266;10.542;2023-01-09T05:36:07;98544.00;;;7.00
64960;BMP180;51487;52.266;10.542;2023-01-09T05:38:33;98548.00;;;6.90
64960;BMP180;51487;52.266;10.542;2023-01-09T05:40:58;98554.00;;;6.90
64960;BMP180;51487;52.266;10.542;2023-01-09T05:43:24;98565.00;;;7.00
64960;BMP180;51487;52.266;10.542;2023-01-09T05:45:49;98569.00;;;6.90
64960;BMP180;51487;52.266;10.542;2023-01-09T05:48:15;98578.00;;;6.90
64960;BMP180;51487;52.266;10.542;2023-01-09T05:50:40;98580.00;;;7.00
64960;BMP180;51487;52.266;10.542;2023-01-09T05:53:06;98595.00;;;7.10
64960;BMP180;51487;52.266;10.542;2023-01-09T05:55:32;98597.00;;;7.10
64960;BMP180;51487;52.266;10.542;2023-01-09T05:57:57;98609.00;;;7.00
64960;BMP180;51487;52.266;10.542;2023-01-09T06:00:23;98605.00;;;7.10
64960;BMP180;51487;52.266;10.542;2023-01-09T06:02:48;98612.00;;;7.00
64960;BMP180;51487;52.266;10.542;2023-01-09T06:05:14;98596.00;;;7.10
64960;BMP180;51487;52.266;10.542;2023-01-09T06:07:40;98603.00;;;7.10
64960;BMP180;51487;52.266;10.542;2023-01-09T06:10:10;98604.00;;;7.00
64960;BMP180;51487;52.266;10.542;2023-01-09T06:12:37;98605.00;;;7.20
64960;BMP180;51487;52.266;10.542;2023-01-09T06:15:03;98603.00;;;7.00
64960;BMP180;51487;52.266;10.542;2023-01-09T06:17:29;98605.00;;;7.00
64960;BMP180;51487;52.266;10.542;2023-01-09T06:19:55;98609.00;;;7.00
64960;BMP180;51487;52.266;10.542;2023-01-09T06:22:20;98614.00;;;7.00
64960;BMP180;51487;52.266;10.542;2023-01-09T06:24:46;98621.00;;;7.10
64960;BMP180;51487;52.266;10.542;2023-01-09T06:27:11;98619.00;;;7.10
64960;BMP180;51487;52.266;10.542;2023-01-09T06:29:37;98624.00;;;7.10
64960;BMP180;51487;52.266;10.542;2023-01-09T06:32:03;98624.00;;;7.00
64960;BMP180;51487;52.266;10.542;2023-01-09T06:34:29;98636.00;;;7.00
64960;BMP180;51487;52.266;10.542;2023-01-09T06:36:55;98633.00;;;7.00
64960;BMP180;51487;52.266;10.542;2023-01-09T06:39:20;98639.00;;;7.00
64960;BMP180;51487;52.266;10.542;2023-01-09T06:41:45;98633.00;;;7.00
64960;BMP180;51487;52.266;10.542;2023-01-09T06:44:11;98634.00;;;7.10
64960;BMP180;51487;52.266;10.542;2023-01-09T06:46:37;98643.00;;;7.10
64960;BMP180;51487;52.266;10.542;2023-01-09T06:49:03;98647.00;;;7.10
64960;BMP180;51487;52.266;10.542;2023-01-09T06:51:28;98648.00;;;7.20
64960;BMP180;51487;52.266;10.542;2023-01-09T06:53:54;98651.00;;;7.20
64960;BMP180;51487;52.266;10.542;2023-01-09T06:56:19;98656.00;;;7.20
64960;BMP180;51487;52.266;10.542;2023-01-09T06:58:45;98652.00;;;7.30
64960;BMP180;51487;52.266;10.542;2023-01-09T07:01:10;98654.00;;;7.30
64960;BMP180;51487;52.266;10.542;2023-01-09T07:03:36;98652.00;;;7.30
64960;BMP180;51487;52.266;10.542;2023-01-09T07:06:02;98650.00;;;7.20
64960;BMP180;51487;52.266;10.542;2023-01-09T07:08:27;98654.00;;;7.30
64960;BMP180;51487;52.266;10.542;2023-01-09T07:10:53;98663.00;;;7.40
64960;BMP180;51487;52.266;10.542;2023-01-09T07:13:18;98659.00;;;7.30
64960;BMP180;51487;52.266;10.542;2023-01-09T07:15:44;98677.00;;;7.20
64960;BMP180;51487;52.266;10.542;2023-01-09T07:18:09;98677.00;;;7.20
64960;BMP180;51487;52.266;10.542;2023-01-09T07:20:37;98685.00;;;7.30
64960;BMP180;51487;52.266;10.542;2023-01-09T07:23:05;98691.00;;;7.30
64960;BMP180;51487;52.266;10.542;2023-01-09T07:25:32;98688.00;;;7.30
64960;BMP180;51487;52.266;10.542;2023-01-09T07:27:58;98692.00;;;7.20
64960;BMP180;51487;52.266;10.542;2023-01-09T07:30:23;98696.00;;;7.20
64960;BMP180;51487;52.266;10.542;2023-01-09T07:32:49;98703.00;;;7.10
64960;BMP180;51487;52.266;10.542;2023-01-09T07:35:14;98703.00;;;7.00
64960;BMP180;51487;52.266;10.542;2023-01-09T07:37:40;98700.00;;;7.00
64960;BMP180;51487;52.266;10.542;2023-01-09T07:40:06;98713.00;;;6.90
64960;BMP180;51487;52.266;10.542;2023-01-09T07:42:32;98714.00;;;6.90
64960;BMP180;51487;52.266;10.542;2023-01-09T07:44:57;98712.00;;;6.80
64960;BMP180;51487;52.266;10.542;2023-01-09T07:47:23;98715.00;;;6.70
64960;BMP180;51487;52.266;10.542;2023-01-09T07:49:48;98720.00;;;6.60
64960;BMP180;51487;52.266;10.542;2023-01-09T07:52:14;98721.00;;;6.50
64960;BMP180;51487;52.266;10.542;2023-01-09T07:54:40;98726.00;;;6.40
64960;BMP180;51487;52.266;10.542;2023-01-09T07:57:05;98726.00;;;6.30
64960;BMP180;51487;52.266;10.542;2023-01-09T07:59:31;98733.00;;;6.30
64960;BMP180;51487;52.266;10.542;2023-01-09T08:01:56;98739.00;;;6.30
64960;BMP180;51487;52.266;10.542;2023-01-09T08:04:22;98747.00;;;6.30
64960;BMP180;51487;52.266;10.542;2023-01-09T08:06:48;98740.00;;;6.20
64960;BMP180;51487;52.266;10.542;2023-01-09T08:09:13;98738.00;;;6.20
64960;BMP180;51487;52.266;10.542;2023-01-09T08:11:42;98744.00;;;6.10
64960;BMP180;51487;52.266;10.542;2023-01-09T08:14:07;98740.00;;;6.10
64960;BMP180;51487;52.266;10.542;2023-01-09T08:16:33;98742.00;;;6.10
64960;BMP180;51487;52.266;10.542;2023-01-09T08:18:58;98744.00;;;6.00
64960;BMP180;51487;52.266;10.542;2023-01-09T08:21:24;98742.00;;;6.00
64960;BMP180;51487;52.266;10.542;2023-01-09T08:23:50;98750.00;;;6.00
64960;BMP180;51487;52.266;10.542;2023-01-09T08:26:15;98749.00;;;6.00
64960;BMP180;51487;52.266;10.542;2023-01-09T08:28:41;98756.00;;;6.00
64960;BMP180;51487;52.266;10.542;2023-01-09T08:31:07;98758.00;;;5.90
64960;BMP180;51487;52.266;10.542;2023-01-09T08:33:32;98753.00;;;6.00
64960;BMP180;51487;52.266;10.542;2023-01-09T08:35:58;98756.00;;;5.90
64960;BMP180;51487;52.266;10.542;2023-01-09T08:38:23;98771.00;;;5.90
64960;BMP180;51487;52.266;10.542;2023-01-09T08:40:49;98775.00;;;5.90
64960;BMP180;51487;52.266;10.542;2023-01-09T08:43:14;98775.00;;;5.90
64960;BMP180;51487;52.266;10.542;2023-01-09T08:45:59;98794.00;;;5.90
64960;BMP180;51487;52.266;10.542;2023-01-09T08:48:43;98796.00;;;5.90
64960;BMP180;51487;52.266;10.542;2023-01-09T08:51:10;98796.00;;;6.00
64960;BMP180;51487;52.266;10.542;2023-01-09T08:53:35;98794.00;;;6.00
64960;BMP180;51487;52.266;10.542;2023-01-09T08:56:02;98798.00;;;6.00
64960;BMP180;51487;52.266;10.542;2023-01-09T08:58:28;98803.00;;;6.10
64960;BMP180;51487;52.266;10.542;2023-01-09T09:00:55;98804.00;;;6.10
64960;BMP180;51487;52.266;10.542;2023-01-09T09:03:21;98802.00;;;6.10
64960;BMP180;51487;52.266;10.542;2023-01-09T09:05:46;98808.00;;;6.10
64960;BMP180;51487;52.266;10.542;2023-01-09T09:08:12;98809.00;;;6.10
64960;BMP180;51487;52.266;10.542;2023-01-09T09:10:38;98816.00;;;6.10
64960;BMP180;51487;52.266;10.542;2023-01-09T09:13:04;98815.00;;;6.20
64960;BMP180;51487;52.266;10.542;2023-01-09T09:15:29;98814.00;;;6.20
64960;BMP180;51487;52.266;10.542;2023-01-09T09:17:57;98812.00;;;6.10
64960;BMP180;51487;52.266;10.542;2023-01-09T09:20:29;98807.00;;;6.20
64960;BMP180;51487;52.266;10.542;2023-01-09T09:22:57;98819.00;;;6.10
64960;BMP180;51487;52.266;10.542;2023-01-09T09:25:23;98810.00;;;6.20
64960;BMP180;51487;52.266;10.542;2023-01-09T09:27:49;98824.00;;;6.30
64960;BMP180;51487;52.266;10.542;2023-01-09T09:30:17;98830.00;;;6.20
64960;BMP180;51487;52.266;10.542;2023-01-09T09:32:43;98828.00;;;6.40
64960;BMP180;51487;52.266;10.542;2023-01-09T09:35:09;98849.00;;;6.40
64960;BMP180;51487;52.266;10.542;2023-01-09T09:37:36;98843.00;;;6.40
64960;BMP180;51487;52.266;10.542;2023-01-09T09:40:02;98848.00;;;6.40
64960;BMP180;51487;52.266;10.542;2023-01-09T09:42:41;98851.00;;;6.40
64960;BMP180;51487;52.266;10.542;2023-01-09T09:45:48;98854.00;;;6.50
64960;BMP180;51487;52.266;10.542;2023-01-09T09:48:51;98853.00;;;6.50
64960;BMP180;51487;52.266;10.542;2023-01-09T09:54:31;98867.00;;;6.50
64960;BMP180;51487;52.266;10.542;2023-01-09T09:57:03;98864.00;;;6.50
64960;BMP180;51487;52.266;10.542;2023-01-09T09:59:33;98859.00;;;6.60
64960;BMP180;51487;52.266;10.542;2023-01-09T10:02:20;98861.00;;;6.70
64960;BMP180;51487;52.266;10.542;2023-01-09T10:04:55;98857.00;;;6.70
64960;BMP180;51487;52.266;10.542;2023-01-09T10:07:33;98855.00;;;6.70
64960;BMP180;51487;52.266;10.542;2023-01-09T10:10:13;98854.00;;;6.80
64960;BMP180;51487;52.266;10.542;2023-01-09T10:12:54;98856.00;;;6.80
64960;BMP180;51487;52.266;10.542;2023-01-09T10:15:44;98856.00;;;6.90
64960;BMP180;51487;52.266;10.542;2023-01-09T10:18:26;98859.00;;;6.90
64960;BMP180;51487;52.266;10.542;2023-01-09T10:21:28;98854.00;;;7.10
64960;BMP180;51487;52.266;10.542;2023-01-09T10:26:58;98855.00;;;7.40
64960;BMP180;51487;52.266;10.542;2023-01-09T10:29:48;98857.00;;;7.50
64960;BMP180;51487;52.266;10.542;2023-01-09T10:35:53;98863.00;;;7.80
64960;BMP180;51487;52.266;10.542;2023-01-09T10:38:45;98867.00;;;7.80
64960;BMP180;51487;52.266;10.542;2023-01-09T10:41:21;98856.00;;;7.90
64960;BMP180;51487;52.266;10.542;2023-01-09T10:44:19;98860.00;;;7.90
64960;BMP180;51487;52.266;10.542;2023-01-09T10:46:53;98857.00;;;8.00
64960;BMP180;51487;52.266;10.542;2023-01-09T10:49:22;98865.00;;;8.10
64960;BMP180;51487;52.266;10.542;2023-01-09T10:54:57;98868.00;;;8.30
64960;BMP180;51487;52.266;10.542;2023-01-09T10:57:36;98856.00;;;8.40
64960;BMP180;51487;52.266;10.542;2023-01-09T11:00:06;98851.00;;;8.30
64960;BMP180;51487;52.266;10.542;2023-01-09T11:02:38;98854.00;;;8.30
64960;BMP180;51487;52.266;10.542;2023-01-09T11:05:04;98857.00;;;8.40
64960;BMP180;51487;52.266;10.542;2023-01-09T11:07:36;98855.00;;;8.20
64960;BMP180;51487;52.266;10.542;2023-01-09T11:10:08;98858.00;;;8.10
64960;BMP180;51487;52.266;10.542;2023-01-09T11:12:40;98857.00;;;8.20
64960;BMP180;51487;52.266;10.542;2023-01-09T11:17:40;98864.00;;;8.00
64960;BMP180;51487;52.266;10.542;2023-01-09T11:20:19;98853.00;;;8.00
64960;BMP180;51487;52.266;10.542;2023-01-09T11:22:49;98849.00;;;7.90
64960;BMP180;51487;52.266;10.542;2023-01-09T11:25:19;98854.00;;;7.70
64960;BMP180;51487;52.266;10.542;2023-01-09T11:28:16;98858.00;;;7.60
64960;BMP180;51487;52.266;10.542;2023-01-09T11:30:56;98862.00;;;7.50
64960;BMP180;51487;52.266;10.542;2023-01-09T11:33:37;98856.00;;;7.50
64960;BMP180;51487;52.266;10.542;2023-01-09T11:36:13;98859.00;;;7.40
64960;BMP180;51487;52.266;10.542;2023-01-09T11:38:49;98868.00;;;7.50
64960;BMP180;51487;52.266;10.542;2023-01-09T11:41:26;98864.00;;;7.50
64960;BMP180;51487;52.266;10.542;2023-01-09T11:43:57;98875.00;;;7.60
64960;BMP180;51487;52.266;10.542;2023-01-09T11:46:40;98868.00;;;7.70
64960;BMP180;51487;52.266;10.542;2023-01-09T11:51:37;98868.00;;;8.00
64960;BMP180;51487;52.266;10.542;2023-01-09T11:54:23;98875.00;;;8.20
64960;BMP180;51487;52.266;10.542;2023-01-09T11:56:52;98877.00;;;8.30
64960;BMP180;51487;52.266;10.542;2023-01-09T11:59:20;98877.00;;;8.30
64960;BMP180;51487;52.266;10.542;2023-01-09T12:05:00;98872.00;;;8.30
64960;BMP180;51487;52.266;10.542;2023-01-09T12:08:16;98879.00;;;8.40
64960;BMP180;51487;52.266;10.542;2023-01-09T12:11:37;98877.00;;;8.40
64960;BMP180;51487;52.266;10.542;2023-01-09T12:14:39;98877.00;;;8.40
64960;BMP180;51487;52.266;10.542;2023-01-09T12:26:20;98872.00;;;8.40
64960;BMP180;51487;52.266;10.542;2023-01-09T12:29:11;98875.00;;;8.50
64960;BMP180;51487;52.266;10.542;2023-01-09T12:32:07;98879.00;;;8.60
64960;BMP180;51487;52.266;10.542;2023-01-09T12:35:20;98872.00;;;8.70
64960;BMP180;51487;52.266;10.542;2023-01-09T12:51:42;98874.00;;;8.80
64960;BMP180;51487;52.266;10.542;2023-01-09T12:57:25;98859.00;;;8.70
64960;BMP180;51487;52.266;10.542;2023-01-09T12:59:58;98870.00;;;8.70
64960;BMP180;51487;52.266;10.542;2023-01-09T13:02:33;98867.00;;;8.70
64960;BMP180;51487;52.266;10.542;2023-01-09T13:05:19;98865.00;;;8.70
64960;BMP180;51487;52.266;10.542;2023-01-09T13:08:14;98866.00;;;8.70
64960;BMP180;51487;52.266;10.542;2023-01-09T13:10:47;98863.00;;;8.50
64960;BMP180;51487;52.266;10.542;2023-01-09T13:13:21;98867.00;;;8.60
64960;BMP180;51487;52.266;10.542;2023-01-09T13:15:59;98866.00;;;8.70
64960;BMP180;51487;52.266;10.542;2023-01-09T13:18:35;98863.00;;;8.80
64960;BMP180;51487;52.266;10.542;2023-01-09T13:21:25;98867.00;;;8.70
64960;BMP180;51487;52.266;10.542;2023-01-09T13:26:41;98870.00;;;8.60
64960;BMP180;51487;52.266;10.542;2023-01-09T13:31:55;98853.00;;;8.60
64960;BMP180;51487;52.266;10.542;2023-01-09T13:34:33;98856.00;;;8.70
64960;BMP180;51487;52.266;10.542;2023-01-09T13:37:01;98858.00;;;8.80
64960;BMP180;51487;52.266;10.542;2023-01-09T13:39:29;98858.00;;;8.80
64960;BMP180;51487;52.266;10.542;2023-01-09T13:42:02;98858.00;;;8.70
64960;BMP180;51487;52.266;10.542;2023-01-09T13:44:52;98856.00;;;8.60
64960;BMP180;51487;52.266;10.542;2023-01-09T13:47:27;98856.00;;;8.50
64960;BMP180;51487;52.266;10.542;2023-01-09T13:49:58;98862.00;;;8.40
64960;BMP180;51487;52.266;10.542;2023-01-09T13:55:25;98854.00;;;8.30
64960;BMP180;51487;52.266;10.542;2023-01-09T14:03:30;98860.00;;;8.10
64960;BMP180;51487;52.266;10.542;2023-01-09T14:08:26;98860.00;;;8.10
64960;BMP180;51487;52.266;10.542;2023-01-09T14:11:04;98862.00;;;8.10
64960;BMP180;51487;52.266;10.542;2023-01-09T14:13:37;98863.00;;;8.10
64960;BMP180;51487;52.266;10.542;2023-01-09T14:16:07;98881.00;;;8.10
64960;BMP180;51487;52.266;10.542;2023-01-09T14:18:53;98885.00;;;8.00
64960;BMP180;51487;52.266;10.542;2023-01-09T14:21:22;98894.00;;;8.00
64960;BMP180;51487;52.266;10.542;2023-01-09T14:26:46;98903.00;;;8.10
64960;BMP180;51487;52.266;10.542;2023-01-09T14:29:35;98917.00;;;8.20
64960;BMP180;51487;52.266;10.542;2023-01-09T14:34:49;98920.00;;;8.10
64960;BMP180;51487;52.266;10.542;2023-01-09T14:37:18;98921.00;;;8.20
64960;BMP180;51487;52.266;10.542;2023-01-09T14:39:45;98931.00;;;8.20
64960;BMP180;51487;52.266;10.542;2023-01-09T14:42:19;98928.00;;;8.20
64960;BMP180;51487;52.266;10.542;2023-01-09T14:44:52;98935.00;;;8.10
64960;BMP180;51487;52.266;10.542;2023-01-09T14:47:40;98945.00;;;8.20
64960;BMP180;51487;52.266;10.542;2023-01-09T14:50:28;98948.00;;;8.20
64960;BMP180;51487;52.266;10.542;2023-01-09T14:55:58;98952.00;;;8.20
64960;BMP180;51487;52.266;10.542;2023-01-09T14:58:34;98955.00;;;8.20
64960;BMP180;51487;52.266;10.542;2023-01-09T15:03:46;98958.00;;;8.30
64960;BMP180;51487;52.266;10.542;2023-01-09T15:06:18;98966.00;;;8.30
64960;BMP180;51487;52.266;10.542;2023-01-09T15:08:46;98972.00;;;8.30
64960;BMP180;51487;52.266;10.542;2023-01-09T15:11:19;98984.00;;;8.20
64960;BMP180;51487;52.266;10.542;2023-01-09T15:13:47;98983.00;;;8.20
64960;BMP180;51487;52.266;10.542;2023-01-09T15:16:21;98989.00;;;8.20
64960;BMP180;51487;52.266;10.542;2023-01-09T15:18:53;98996.00;;;8.20
64960;BMP180;51487;52.266;10.542;2023-01-09T15:21:28;98993.00;;;8.30
64960;BMP180;51487;52.266;10.542;2023-01-09T15:24:20;98998.00;;;8.30
64960;BMP180;51487;52.266;10.542;2023-01-09T15:26:52;99005.00;;;8.20
64960;BMP180;51487;52.266;10.542;2023-01-09T15:29:19;99004.00;;;8.20
64960;BMP180;51487;52.266;10.542;2023-01-09T15:31:48;99009.00;;;8.20
64960;BMP180;51487;52.266;10.542;2023-01-09T15:34:20;99019.00;;;8.10
64960;BMP180;51487;52.266;10.542;2023-01-09T15:36:49;99024.00;;;8.10
64960;BMP180;51487;52.266;10.542;2023-01-09T15:39:21;99025.00;;;8.00
64960;BMP180;51487;52.266;10.542;2023-01-09T15:41:50;99029.00;;;8.10
64960;BMP180;51487;52.266;10.542;2023-01-09T15:44:38;99025.00;;;8.10
64960;BMP180;51487;52.266;10.542;2023-01-09T15:47:13;99030.00;;;8.10
64960;BMP180;51487;52.266;10.542;2023-01-09T15:49:44;99038.00;;;8.20
64960;BMP180;51487;52.266;10.542;2023-01-09T15:52:14;99037.00;;;8.20
64960;BMP180;51487;52.266;10.542;2023-01-09T15:54:45;99039.00;;;8.10
64960;BMP180;51487;52.266;10.542;2023-01-09T15:59:48;99060.00;;;8.10
64960;BMP180;51487;52.266;10.542;2023-01-09T16:02:15;99064.00;;;8.00
64960;BMP180;51487;52.266;10.542;2023-01-09T16:05:05;99082.00;;;8.20
64960;BMP180;51487;52.266;10.542;2023-01-09T16:07:32;99097.00;;;8.10
64960;BMP180;51487;52.266;10.542;2023-01-09T16:09:58;99083.00;;;8.00
64960;BMP180;51487;52.266;10.542;2023-01-09T16:12:26;99085.00;;;7.90
64960;BMP180;51487;52.266;10.542;2023-01-09T16:14:57;99085.00;;;7.90
64960;BMP180;51487;52.266;10.542;2023-01-09T16:17:24;99087.00;;;7.80